Time;durP1;ratioP1;P1;durP2;ratioP2;P2;SDS_P1;SDS_P2;PMS_P1;PMS_P2;Temp;Humidity;BMP_temperature;BMP_pressure;BME280_temperature;BME280_humidity;BME280_pressure;Samples;Min_cycle;Max_cycle;Signal;HPM_P1;HPM_P2
2022/10/25 00:01:40;;;;;;;15.63;10.60;;;;;;;;;;5136080;27;20391;-78
2022/10/25 00:04:25;;;;;;;16.50;11.02;;;;;;;;;;5135300;27;20047;-78
2022/10/25 00:07:12;;;;;;;17.52;10.88;;;;;;;;;;5139770;27;20019;-78
2022/10/25 00:09:57;;;;;;;18.00;10.68;;;;;;;;;;5138173;27;20149;-78
2022/10/25 00:12:43;;;;;;;15.75;10.18;;;;;;;;;;5144517;27;20026;-79
2022/10/25 00:15:29;;;;;;;19.40;10.95;;;;;;;;;;5150295;27;20019;-78
2022/10/25 00:18:14;;;;;;;15.10;10.13;;;;;;;;;;5137069;27;20164;-78
2022/10/25 00:21:03;;;;;;;15.25;10.18;;;;;;;;;;5121623;27;20019;-78
2022/10/25 00:23:49;;;;;;;15.27;9.40;;;;;;;;;;5135201;27;20053;-79
2022/10/25 00:26:34;;;;;;;18.30;10.13;;;;;;;;;;5137452;27;20023;-77
2022/10/25 00:29:20;;;;;;;15.57;8.85;;;;;;;;;;5121994;27;20015;-78
2022/10/25 00:32:05;;;;;;;14.15;8.95;;;;;;;;;;5135736;27;20056;-78
2022/10/25 00:34:51;;;;;;;11.07;8.10;;;;;;;;;;5151588;27;20025;-78
2022/10/25 00:37:37;;;;;;;11.77;7.65;;;;;;;;;;5136306;27;20039;-78
2022/10/25 00:40:22;;;;;;;13.05;7.88;;;;;;;;;;5135246;27;20089;-79
2022/10/25 00:43:08;;;;;;;17.52;8.35;;;;;;;;;;5121833;27;20394;-79
2022/10/25 00:45:54;;;;;;;13.85;7.30;;;;;;;;;;5135852;27;20038;-78
2022/10/25 00:48:41;;;;;;;14.90;8.20;;;;;;;;;;5136416;27;20016;-78
2022/10/25 00:51:32;;;;;;;11.40;7.15;;;;;;;;;;5136497;27;20079;-77
2022/10/25 00:54:19;;;;;;;10.75;7.20;;;;;;;;;;5135589;27;20038;-78
2022/10/25 00:57:09;;;;;;;10.25;6.72;;;;;;;;;;5135646;27;20034;-77
2022/10/25 00:59:55;;;;;;;12.20;7.60;;;;;;;;;;5135967;27;20090;-78
2022/10/25 01:02:41;;;;;;;13.73;8.65;;;;;;;;;;5135329;27;20019;-77
2022/10/25 01:05:27;;;;;;;16.83;8.57;;;;;;;;;;5136513;27;20023;-78
2022/10/25 01:08:12;;;;;;;15.50;8.27;;;;;;;;;;5135227;27;20439;-78
2022/10/25 01:10:58;;;;;;;16.48;9.23;;;;;;;;;;5121342;27;20398;-78
2022/10/25 01:13:44;;;;;;;16.73;9.27;;;;;;;;;;5136559;27;20034;-78
2022/10/25 01:16:39;;;;;;;17.70;9.88;;;;;;;;;;5135325;27;20047;-78
2022/10/25 01:19:28;;;;;;;17.17;10.35;;;;;;;;;;5135885;28;20023;-78
2022/10/25 01:22:22;;;;;;;14.35;9.98;;;;;;;;;;5134260;28;20433;-78
2022/10/25 01:25:26;;;;;;;19.55;10.23;;;;;;;;;;5135297;28;20030;-78
2022/10/25 01:28:15;;;;;;;17.08;10.27;;;;;;;;;;5134766;28;20110;-78
2022/10/25 01:31:10;;;;;;;16.85;9.82;;;;;;;;;;5134151;28;20123;-78
2022/10/25 01:34:06;;;;;;;17.92;9.38;;;;;;;;;;5136828;27;20519;-78
2022/10/25 01:37:16;;;;;;;15.63;9.40;;;;;;;;;;5131492;27;20126;-78
2022/10/25 01:40:08;;;;;;;15.07;9.50;;;;;;;;;;5158717;27;20011;-78
2022/10/25 01:43:03;;;;;;;15.30;10.00;;;;;;;;;;5159537;27;20025;-77
2022/10/25 01:46:15;;;;;;;16.63;9.73;;;;;;;;;;5144268;27;20018;-78
2022/10/25 01:49:03;;;;;;;16.08;9.95;;;;;;;;;;5140042;27;20049;-78
2022/10/25 01:51:48;;;;;;;15.55;9.93;;;;;;;;;;5144610;27;20022;-78
2022/10/25 01:54:34;;;;;;;15.77;9.63;;;;;;;;;;5158627;27;20026;-78
2022/10/25 01:57:37;;;;;;;16.50;9.45;;;;;;;;;;5158692;27;20019;-78
2022/10/25 02:00:24;;;;;;;15.70;9.23;;;;;;;;;;5158823;27;20167;-77
2022/10/25 02:03:13;;;;;;;13.00;9.05;;;;;;;;;;5158604;27;20019;-78
2022/10/25 02:06:05;;;;;;;17.08;9.55;;;;;;;;;;5160052;27;20015;-78
2022/10/25 02:09:17;;;;;;;17.52;9.57;;;;;;;;;;5160513;27;20341;-77
2022/10/25 02:12:04;;;;;;;15.73;9.15;;;;;;;;;;5143456;27;20046;-77
2022/10/25 02:14:54;;;;;;;17.13;9.70;;;;;;;;;;5143981;27;20027;-77
2022/10/25 02:17:43;;;;;;;15.57;9.90;;;;;;;;;;5143701;27;20027;-77
2022/10/25 02:20:30;;;;;;;16.00;9.55;;;;;;;;;;5159508;27;20010;-77
2022/10/25 02:23:17;;;;;;;18.67;9.50;;;;;;;;;;5145247;27;20397;-77
2022/10/25 02:26:04;;;;;;;29.55;11.32;;;;;;;;;;5159096;27;20033;-78
2022/10/25 02:28:50;;;;;;;22.65;11.57;;;;;;;;;;5143385;27;20026;-77
2022/10/25 02:31:36;;;;;;;28.02;11.60;;;;;;;;;;5142514;27;20022;-78
2022/10/25 02:34:22;;;;;;;24.90;11.23;;;;;;;;;;5159082;27;20075;-77
2022/10/25 02:37:07;;;;;;;20.38;10.43;;;;;;;;;;5156107;27;20117;-77
2022/10/25 02:39:53;;;;;;;27.98;10.10;;;;;;;;;;5157681;27;20022;-77
2022/10/25 02:42:38;;;;;;;21.00;10.93;;;;;;;;;;5142007;27;20371;-77
2022/10/25 02:45:24;;;;;;;16.85;9.48;;;;;;;;;;5156193;27;20019;-76
2022/10/25 02:48:10;;;;;;;18.58;8.70;;;;;;;;;;5140740;27;20023;-78
2022/10/25 02:50:55;;;;;;;19.15;8.85;;;;;;;;;;5157060;27;20098;-78
2022/10/25 02:53:41;;;;;;;24.35;9.70;;;;;;;;;;5156399;27;20011;-77
2022/10/25 02:56:26;;;;;;;23.70;11.40;;;;;;;;;;5156536;27;20097;-77
2022/10/25 02:59:12;;;;;;;20.27;10.75;;;;;;;;;;5141751;27;20188;-77
2022/10/25 03:01:58;;;;;;;21.85;11.65;;;;;;;;;;5156148;27;20019;-77
2022/10/25 03:04:43;;;;;;;19.15;10.95;;;;;;;;;;5157494;27;20015;-77
2022/10/25 03:07:29;;;;;;;19.70;10.88;;;;;;;;;;5156250;27;20026;-75
2022/10/25 03:10:14;;;;;;;17.73;11.48;;;;;;;;;;5156366;27;20014;-77
2022/10/25 03:13:00;;;;;;;22.52;11.00;;;;;;;;;;5157192;27;20019;-76
2022/10/25 03:15:46;;;;;;;18.63;10.48;;;;;;;;;;5156226;27;20102;-78
2022/10/25 03:18:32;;;;;;;19.75;11.02;;;;;;;;;;5156532;27;20447;-78
2022/10/25 03:21:17;;;;;;;21.35;11.27;;;;;;;;;;5141269;27;20015;-78
2022/10/25 03:24:03;;;;;;;20.75;10.95;;;;;;;;;;5156140;27;20025;-78
2022/10/25 03:26:48;;;;;;;19.70;10.75;;;;;;;;;;5156690;27;20033;-78
2022/10/25 03:29:34;;;;;;;22.40;10.85;;;;;;;;;;5155167;27;20010;-78
2022/10/25 03:32:19;;;;;;;19.55;11.32;;;;;;;;;;5141232;27;20465;-78
2022/10/25 03:35:06;;;;;;;22.08;10.55;;;;;;;;;;5156085;27;20042;-77
2022/10/25 03:37:51;;;;;;;20.98;10.25;;;;;;;;;;5100882;27;1119279;-78
2022/10/25 03:40:37;;;;;;;17.80;9.70;;;;;;;;;;5156907;27;20039;-76
2022/10/25 03:43:22;;;;;;;20.13;10.43;;;;;;;;;;5157346;27;20027;-77
2022/10/25 03:46:08;;;;;;;23.17;11.32;;;;;;;;;;5156203;27;20456;-78
2022/10/25 03:48:54;;;;;;;36.92;16.33;;;;;;;;;;5141280;27;20023;-78
2022/10/25 03:51:39;;;;;;;31.45;16.25;;;;;;;;;;5156979;27;20043;-78
2022/10/25 03:54:25;;;;;;;33.30;16.60;;;;;;;;;;5156820;27;20444;-77
2022/10/25 03:57:10;;;;;;;31.02;17.58;;;;;;;;;;5155669;27;20054;-78
2022/10/25 03:59:59;;;;;;;32.30;17.52;;;;;;;;;;5156265;27;20023;-78
2022/10/25 04:02:44;;;;;;;30.00;18.75;;;;;;;;;;5156352;27;20103;-78
2022/10/25 04:05:30;;;;;;;35.70;19.35;;;;;;;;;;5155991;27;20468;-77
2022/10/25 04:08:16;;;;;;;37.38;18.95;;;;;;;;;;5141927;27;20017;-77
2022/10/25 04:11:01;;;;;;;35.47;17.90;;;;;;;;;;5157444;27;20022;-77
2022/10/25 04:13:47;;;;;;;34.08;15.93;;;;;;;;;;5157098;27;20114;-77
2022/10/25 04:16:33;;;;;;;25.75;14.95;;;;;;;;;;5155977;27;20030;-78
2022/10/25 04:19:18;;;;;;;30.95;15.05;;;;;;;;;;5157345;27;20029;-78
2022/10/25 04:22:04;;;;;;;25.77;14.45;;;;;;;;;;5157159;27;20015;-78
2022/10/25 04:24:49;;;;;;;27.90;14.90;;;;;;;;;;5178699;27;20026;-76
2022/10/25 04:27:35;;;;;;;27.38;15.43;;;;;;;;;;5159840;27;20305;-78
2022/10/25 04:30:21;;;;;;;25.58;15.77;;;;;;;;;;5160001;27;20155;-76
2022/10/25 04:33:07;;;;;;;25.98;16.70;;;;;;;;;;5156636;27;20360;-79
2022/10/25 04:35:55;;;;;;;29.88;15.10;;;;;;;;;;5156268;27;20064;-78
2022/10/25 04:38:40;;;;;;;36.05;16.58;;;;;;;;;;5155877;27;20045;-77
2022/10/25 04:41:26;;;;;;;45.20;16.77;;;;;;;;;;5156669;27;20083;-77
2022/10/25 04:44:11;;;;;;;43.45;16.50;;;;;;;;;;5156351;27;20019;-79
2022/10/25 04:46:57;;;;;;;41.53;14.63;;;;;;;;;;5156413;27;20110;-77
2022/10/25 04:49:42;;;;;;;46.15;15.75;;;;;;;;;;5155582;27;20118;-78
2022/10/25 04:52:28;;;;;;;106.75;19.38;;;;;;;;;;5155540;27;20034;-77
2022/10/25 04:55:14;;;;;;;40.92;13.85;;;;;;;;;;5140468;27;20405;-78
2022/10/25 04:58:00;;;;;;;36.83;14.05;;;;;;;;;;5155778;27;20056;-77
2022/10/25 05:00:46;;;;;;;37.08;14.73;;;;;;;;;;5156092;27;20018;-78
2022/10/25 05:03:31;;;;;;;45.88;13.70;;;;;;;;;;5169688;27;20015;-78
2022/10/25 05:06:18;;;;;;;30.52;12.95;;;;;;;;;;5146945;27;20049;-79
2022/10/25 05:09:04;;;;;;;23.20;12.38;;;;;;;;;;5156687;27;20030;-78
2022/10/25 05:11:49;;;;;;;23.85;11.50;;;;;;;;;;5156490;27;20022;-75
2022/10/25 05:14:35;;;;;;;19.17;10.48;;;;;;;;;;5155556;27;20507;-75
2022/10/25 05:17:20;;;;;;;24.67;10.32;;;;;;;;;;5154392;27;20124;-76
2022/10/25 05:20:06;;;;;;;35.53;13.65;;;;;;;;;;5155488;27;20027;-75
2022/10/25 05:22:52;;;;;;;31.58;12.75;;;;;;;;;;5155129;27;20023;-75
2022/10/25 05:25:37;;;;;;;23.02;14.07;;;;;;;;;;5139799;27;20045;-75
2022/10/25 05:28:23;;;;;;;24.40;12.98;;;;;;;;;;5155417;27;20027;-76
2022/10/25 05:31:19;;;;;;;20.70;11.30;;;;;;;;;;5139878;27;20102;-75
2022/10/25 05:34:04;;;;;;;17.10;10.13;;;;;;;;;;5155124;27;20379;-74
2022/10/25 05:36:50;;;;;;;22.60;11.80;;;;;;;;;;5155043;27;20043;-75
2022/10/25 05:39:36;;;;;;;21.50;10.75;;;;;;;;;;5155283;27;20011;-75
2022/10/25 05:42:21;;;;;;;25.92;11.43;;;;;;;;;;5155506;27;20053;-75
2022/10/25 05:45:07;;;;;;;27.75;11.75;;;;;;;;;;5155222;27;20463;-75
2022/10/25 05:47:53;;;;;;;20.65;11.13;;;;;;;;;;5154075;27;20073;-76
2022/10/25 05:50:38;;;;;;;25.88;11.15;;;;;;;;;;5155699;27;20034;-76
2022/10/25 05:53:24;;;;;;;26.52;11.23;;;;;;;;;;5154714;27;20177;-75
2022/10/25 05:56:09;;;;;;;20.30;10.82;;;;;;;;;;5155245;27;20443;-76
2022/10/25 05:58:56;;;;;;;23.02;10.10;;;;;;;;;;5154901;27;20019;-76
2022/10/25 06:01:43;;;;;;;34.53;10.73;;;;;;;;;;5154582;27;20010;-75
2022/10/25 06:04:28;;;;;;;19.88;9.52;;;;;;;;;;5155122;27;20011;-77
2022/10/25 06:07:14;;;;;;;19.70;8.68;;;;;;;;;;5154795;27;20046;-76
2022/10/25 06:09:59;;;;;;;17.08;8.27;;;;;;;;;;5139654;27;20330;-75
2022/10/25 06:12:45;;;;;;;14.40;7.50;;;;;;;;;;5155055;27;20056;-75
2022/10/25 06:15:31;;;;;;;12.35;7.20;;;;;;;;;;5154037;27;20023;-74
2022/10/25 06:18:16;;;;;;;13.02;7.75;;;;;;;;;;5155646;27;20078;-74
2022/10/25 06:21:03;;;;;;;17.33;8.15;;;;;;;;;;5157749;27;20030;-76
2022/10/25 06:23:49;;;;;;;14.38;7.03;;;;;;;;;;5144016;27;20094;-75
2022/10/25 06:26:34;;;;;;;20.98;8.38;;;;;;;;;;5143077;27;20052;-75
2022/10/25 06:29:20;;;;;;;20.77;7.68;;;;;;;;;;5158576;27;20344;-76
2022/10/25 06:32:05;;;;;;;24.67;7.65;;;;;;;;;;5158829;27;20022;-76
2022/10/25 06:34:51;;;;;;;17.45;6.97;;;;;;;;;;5158729;27;20030;-76
2022/10/25 06:37:37;;;;;;;26.52;7.68;;;;;;;;;;5157896;27;20043;-76
2022/10/25 06:40:22;;;;;;;23.30;8.27;;;;;;;;;;5143421;27;20100;-77
2022/10/25 06:43:08;;;;;;;21.60;8.40;;;;;;;;;;5143564;27;20083;-76
2022/10/25 06:45:54;;;;;;;17.15;7.40;;;;;;;;;;5157411;27;20023;-78
2022/10/25 06:48:39;;;;;;;24.55;8.27;;;;;;;;;;5143648;27;20022;-75
2022/10/25 06:51:26;;;;;;;21.20;8.25;;;;;;;;;;5142976;27;20026;-77
2022/10/25 06:54:12;;;;;;;21.85;8.32;;;;;;;;;;5160189;27;20376;-73
2022/10/25 06:56:57;;;;;;;20.27;8.30;;;;;;;;;;5158087;27;20097;-75
2022/10/25 06:59:44;;;;;;;21.65;8.15;;;;;;;;;;5157430;27;20015;-75
2022/10/25 07:02:30;;;;;;;23.83;8.68;;;;;;;;;;5157738;27;20022;-76
2022/10/25 07:05:15;;;;;;;20.73;7.65;;;;;;;;;;5142395;27;20018;-76
2022/10/25 07:08:01;;;;;;;26.55;8.00;;;;;;;;;;5156920;27;20030;-76
2022/10/25 07:10:53;;;;;;;22.65;8.48;;;;;;;;;;5157357;27;20079;-76
2022/10/25 07:13:39;;;;;;;20.13;7.90;;;;;;;;;;5157285;27;20022;-76
2022/10/25 07:16:25;;;;;;;18.70;8.98;;;;;;;;;;5156824;27;20167;-75
2022/10/25 07:19:11;;;;;;;29.70;8.80;;;;;;;;;;5156733;27;20015;-75
2022/10/25 07:21:57;;;;;;;20.90;8.35;;;;;;;;;;5156671;27;20019;-78
2022/10/25 07:24:42;;;;;;;32.20;10.98;;;;;;;;;;5155998;27;20011;-76
2022/10/25 07:27:30;;;;;;;16.70;7.68;;;;;;;;;;5157166;27;20037;-76
2022/10/25 07:30:15;;;;;;;14.45;7.15;;;;;;;;;;5156360;27;20047;-76
2022/10/25 07:33:02;;;;;;;12.73;7.20;;;;;;;;;;5155697;27;20033;-76
2022/10/25 07:35:48;;;;;;;9.30;6.03;;;;;;;;;;5157819;27;20027;-75
2022/10/25 07:38:34;;;;;;;11.90;5.80;;;;;;;;;;5156939;27;20321;-76
2022/10/25 07:41:19;;;;;;;11.18;6.18;;;;;;;;;;5156665;27;20455;-78
2022/10/25 07:44:05;;;;;;;10.35;6.00;;;;;;;;;;5156263;27;20027;-78
2022/10/25 07:46:52;;;;;;;11.50;6.13;;;;;;;;;;5156193;27;20445;-79
2022/10/25 07:49:38;;;;;;;9.07;6.03;;;;;;;;;;5156964;27;20034;-76
2022/10/25 07:52:24;;;;;;;15.75;7.25;;;;;;;;;;5155529;27;20155;-75
2022/10/25 07:55:09;;;;;;;18.52;7.65;;;;;;;;;;5156643;27;20019;-75
2022/10/25 07:58:02;;;;;;;16.05;7.18;;;;;;;;;;5155880;27;20072;-76
2022/10/25 08:00:48;;;;;;;14.32;7.50;;;;;;;;;;5156481;27;20021;-77
2022/10/25 08:03:33;;;;;;;16.17;6.78;;;;;;;;;;5156263;27;20026;-77
2022/10/25 08:06:20;;;;;;;17.10;6.90;;;;;;;;;;5155956;27;20463;-75
2022/10/25 08:09:05;;;;;;;12.85;6.90;;;;;;;;;;5155716;27;20027;-75
2022/10/25 08:11:51;;;;;;;12.85;6.60;;;;;;;;;;5141932;27;20109;-76
2022/10/25 08:14:36;;;;;;;21.05;6.88;;;;;;;;;;5156018;27;20033;-76
2022/10/25 08:17:22;;;;;;;11.95;6.18;;;;;;;;;;5155432;27;20083;-76
2022/10/25 08:20:08;;;;;;;13.93;6.10;;;;;;;;;;5155587;27;20152;-76
2022/10/25 08:22:59;;;;;;;13.88;5.72;;;;;;;;;;5155611;27;20217;-75
2022/10/25 08:25:45;;;;;;;9.18;5.78;;;;;;;;;;5156185;27;20019;-77
2022/10/25 08:28:31;;;;;;;9.45;5.47;;;;;;;;;;5155419;27;20083;-75
2022/10/25 08:31:17;;;;;;;11.90;7.38;;;;;;;;;;5155995;27;20014;-77
2022/10/25 08:34:02;;;;;;;12.95;6.20;;;;;;;;;;5155552;27;20411;-78
2022/10/25 08:36:48;;;;;;;11.23;6.35;;;;;;;;;;5154293;27;20042;-78
2022/10/25 08:39:34;;;;;;;11.48;5.90;;;;;;;;;;5156086;27;20324;-75
2022/10/25 08:42:46;;;;;;;9.70;5.72;;;;;;;;;;5172801;27;20010;-75
2022/10/25 08:45:47;;;;;;;10.00;5.60;;;;;;;;;;5138461;27;20019;-75
2022/10/25 08:48:33;;;;;;;12.35;6.05;;;;;;;;;;5140107;27;20030;-76
2022/10/25 08:51:31;;;;;;;10.38;5.43;;;;;;;;;;5141007;27;20033;-76
2022/10/25 08:54:17;;;;;;;8.32;5.00;;;;;;;;;;5156422;27;20019;-77
2022/10/25 08:57:02;;;;;;;10.30;5.50;;;;;;;;;;5154935;27;20023;-76
2022/10/25 08:59:52;;;;;;;9.30;5.22;;;;;;;;;;5155145;27;20110;-75
2022/10/25 09:02:51;;;;;;;9.75;6.90;;;;;;;;;;5156853;27;20023;-74
2022/10/25 09:05:39;;;;;;;16.33;8.23;;;;;;;;;;5155575;27;20105;-75
2022/10/25 09:08:30;;;;;;;13.27;8.38;;;;;;;;;;5141179;27;20014;-75
2022/10/25 09:11:21;;;;;;;15.60;9.75;;;;;;;;;;5164668;27;20035;-75
2022/10/25 09:14:06;;;;;;;16.30;10.50;;;;;;;;;;5169357;27;20094;-77
2022/10/25 09:16:55;;;;;;;14.93;8.25;;;;;;;;;;5155278;27;20064;-76
2022/10/25 09:20:06;;;;;;;13.43;7.50;;;;;;;;;;5154544;27;20053;-75
2022/10/25 09:23:06;;;;;;;15.73;8.13;;;;;;;;;;5156367;27;20348;-75
2022/10/25 09:26:04;;;;;;;12.88;6.43;;;;;;;;;;5157149;27;20014;-76
2022/10/25 09:28:54;;;;;;;11.95;6.30;;;;;;;;;;5140318;27;20018;-75
2022/10/25 09:31:41;;;;;;;14.43;6.15;;;;;;;;;;5155278;27;20097;-74
2022/10/25 09:34:29;;;;;;;9.13;5.38;;;;;;;;;;5153444;27;20080;-76
2022/10/25 09:37:22;;;;;;;10.70;6.20;;;;;;;;;;5139554;27;20043;-76
2022/10/25 09:40:13;;;;;;;9.27;5.70;;;;;;;;;;5166252;27;20026;-76
2022/10/25 09:43:03;;;;;;;13.13;6.32;;;;;;;;;;5161072;27;20014;-75
2022/10/25 09:45:54;;;;;;;13.68;5.90;;;;;;;;;;5156554;27;20025;-76
2022/10/25 09:49:00;;;;;;;11.50;5.80;;;;;;;;;;5141229;27;20033;-75
2022/10/25 09:51:52;;;;;;;11.48;5.90;;;;;;;;;;5155041;27;20027;-76
2022/10/25 09:54:40;;;;;;;16.00;7.30;;;;;;;;;;5156039;27;20330;-76
2022/10/25 09:57:26;;;;;;;17.20;6.07;;;;;;;;;;5158225;27;20014;-74
2022/10/25 10:00:13;;;;;;;14.30;6.40;;;;;;;;;;5158712;27;20027;-75
2022/10/25 10:02:58;;;;;;;11.65;5.70;;;;;;;;;;5160006;27;20444;-76
2022/10/25 10:05:47;;;;;;;11.27;6.47;;;;;;;;;;5158614;27;20048;-77
2022/10/25 10:08:34;;;;;;;14.35;6.20;;;;;;;;;;5159176;27;20049;-77
2022/10/25 10:11:23;;;;;;;15.73;5.90;;;;;;;;;;5142696;27;20440;-76
2022/10/25 10:14:17;;;;;;;16.10;6.30;;;;;;;;;;5159251;27;20093;-76
2022/10/25 10:17:05;;;;;;;15.52;6.07;;;;;;;;;;5143924;27;20023;-75
2022/10/25 10:20:07;;;;;;;14.90;6.80;;;;;;;;;;5158589;27;20315;-76
2022/10/25 10:22:53;;;;;;;19.65;6.28;;;;;;;;;;5144258;27;20113;-76
2022/10/25 10:25:44;;;;;;;14.00;6.28;;;;;;;;;;5160269;27;20014;-73
2022/10/25 10:28:29;;;;;;;15.23;6.20;;;;;;;;;;5144389;27;20059;-76
2022/10/25 10:31:16;;;;;;;14.98;7.47;;;;;;;;;;5158590;27;20066;-74
2022/10/25 10:34:02;;;;;;;24.50;7.93;;;;;;;;;;5157267;27;20023;-74
2022/10/25 10:36:59;;;;;;;20.02;7.95;;;;;;;;;;5157318;27;20070;-76
2022/10/25 10:39:50;;;;;;;19.50;7.88;;;;;;;;;;5158514;27;20420;-75
2022/10/25 10:42:36;;;;;;;19.90;7.10;;;;;;;;;;5158481;27;20027;-75
2022/10/25 10:45:22;;;;;;;15.70;6.43;;;;;;;;;;5157898;27;20025;-75
2022/10/25 10:48:13;;;;;;;12.30;5.88;;;;;;;;;;5157324;27;20019;-76
2022/10/25 10:50:59;;;;;;;11.00;5.80;;;;;;;;;;5142910;27;20022;-75
2022/10/25 10:53:44;;;;;;;13.02;5.97;;;;;;;;;;5144376;27;20037;-75
2022/10/25 10:56:32;;;;;;;15.18;6.05;;;;;;;;;;5143049;27;20022;-76
2022/10/25 10:59:25;;;;;;;21.30;8.18;;;;;;;;;;5158424;27;20493;-74
2022/10/25 11:02:21;;;;;;;13.25;8.48;;;;;;;;;;5157733;27;20031;-75
2022/10/25 11:05:22;;;;;;;20.98;5.70;;;;;;;;;;5157779;27;20015;-76
2022/10/25 11:08:07;;;;;;;13.60;6.15;;;;;;;;;;5156964;27;20019;-76
2022/10/25 11:11:11;;;;;;;16.80;6.10;;;;;;;;;;5142621;27;20018;-76
2022/10/25 11:13:57;;;;;;;16.80;6.25;;;;;;;;;;5158498;27;20350;-75
2022/10/25 11:16:45;;;;;;;14.27;6.22;;;;;;;;;;5142199;27;20022;-76
2022/10/25 11:19:50;;;;;;;17.60;6.55;;;;;;;;;;5142571;27;20105;-77
2022/10/25 11:22:41;;;;;;;13.88;6.18;;;;;;;;;;5156067;27;20348;-76
2022/10/25 11:25:37;;;;;;;18.40;6.30;;;;;;;;;;5157992;27;20026;-76
2022/10/25 11:28:32;;;;;;;25.50;6.88;;;;;;;;;;5156653;27;20026;-76
2022/10/25 11:31:17;;;;;;;17.60;6.07;;;;;;;;;;5157612;27;20018;-76
2022/10/25 11:34:26;;;;;;;21.27;5.70;;;;;;;;;;5156777;27;20110;-76
2022/10/25 11:37:18;;;;;;;15.55;6.90;;;;;;;;;;5141958;27;20468;-76
2022/10/25 11:40:17;;;;;;;19.58;6.47;;;;;;;;;;5143817;27;20030;-77
2022/10/25 11:43:03;;;;;;;25.83;6.82;;;;;;;;;;5156103;27;20014;-77
2022/10/25 11:45:55;;;;;;;12.68;6.32;;;;;;;;;;5156470;27;20033;-77
2022/10/25 11:49:00;;;;;;;17.05;6.93;;;;;;;;;;5157820;27;20011;-76
2022/10/25 11:52:04;;;;;;;16.45;7.15;;;;;;;;;;5155549;27;20038;-76
2022/10/25 11:55:02;;;;;;;16.30;7.25;;;;;;;;;;5142498;27;20344;-74
2022/10/25 11:57:59;;;;;;;16.08;7.28;;;;;;;;;;5156762;27;20047;-80
2022/10/25 12:01:03;;;;;;;20.20;7.82;;;;;;;;;;5156374;27;20022;-81
2022/10/25 12:04:08;;;;;;;19.67;7.80;;;;;;;;;;5142348;27;20019;-82
2022/10/25 12:06:56;;;;;;;20.92;7.65;;;;;;;;;;5142161;27;20019;-82
2022/10/25 12:10:01;;;;;;;15.32;7.78;;;;;;;;;;5156462;27;20031;-81
2022/10/25 12:12:53;;;;;;;15.35;7.75;;;;;;;;;;5157895;27;20023;-81
2022/10/25 12:15:41;;;;;;;12.70;7.57;;;;;;;;;;5158066;27;20010;-83
2022/10/25 12:18:35;;;;;;;17.60;7.80;;;;;;;;;;5157121;27;20084;-84
2022/10/25 12:21:26;;;;;;;16.33;7.85;;;;;;;;;;5157064;27;20019;-83
2022/10/25 12:24:17;;;;;;;16.77;7.47;;;;;;;;;;5142120;27;20018;-81
2022/10/25 12:27:03;;;;;;;22.90;7.80;;;;;;;;;;5141439;27;20075;-81
2022/10/25 12:29:52;;;;;;;20.48;8.30;;;;;;;;;;5155334;27;20031;-81
2022/10/25 12:32:41;;;;;;;22.67;8.32;;;;;;;;;;5141036;27;20029;-81
2022/10/25 12:35:29;;;;;;;15.50;7.70;;;;;;;;;;5141273;27;20022;-81
2022/10/25 12:38:19;;;;;;;17.23;7.15;;;;;;;;;;5141335;27;20047;-83
2022/10/25 12:41:18;;;;;;;18.85;7.25;;;;;;;;;;5141643;27;20021;-81
2022/10/25 12:44:13;;;;;;;17.73;7.25;;;;;;;;;;5155754;27;20023;-81
2022/10/25 12:47:18;;;;;;;15.23;7.68;;;;;;;;;;5156760;27;20022;-82
2022/10/25 12:50:16;;;;;;;24.42;7.60;;;;;;;;;;5156371;27;20023;-81
2022/10/25 12:53:02;;;;;;;19.25;8.60;;;;;;;;;;5141328;27;20022;-82
2022/10/25 12:55:56;;;;;;;18.58;8.43;;;;;;;;;;5156661;27;20022;-81
2022/10/25 12:58:42;;;;;;;17.05;8.05;;;;;;;;;;5140430;27;20023;-82
2022/10/25 13:01:30;;;;;;;13.57;7.25;;;;;;;;;;5155997;27;20022;-82
2022/10/25 13:04:16;;;;;;;16.15;7.65;;;;;;;;;;5155625;27;20354;-81
2022/10/25 13:07:02;;;;;;;16.65;8.15;;;;;;;;;;5155314;27;20041;-81
2022/10/25 13:09:48;;;;;;;20.48;8.07;;;;;;;;;;5140504;27;20069;-81
2022/10/25 13:12:34;;;;;;;17.52;8.00;;;;;;;;;;5140982;27;20444;-78
2022/10/25 13:15:20;;;;;;;23.75;8.18;;;;;;;;;;5140593;27;20468;-79
2022/10/25 13:18:23;;;;;;;19.55;7.93;;;;;;;;;;5139493;27;20038;-79
2022/10/25 13:21:13;;;;;;;20.35;6.82;;;;;;;;;;5139697;27;20066;-79
2022/10/25 13:23:59;;;;;;;22.80;6.55;;;;;;;;;;5139623;27;20086;-79
2022/10/25 13:27:04;;;;;;;18.20;6.85;;;;;;;;;;5155530;27;20018;-79
2022/10/25 13:30:05;;;;;;;16.05;6.60;;;;;;;;;;5144295;27;20015;-80
2022/10/25 13:33:09;;;;;;;47.88;7.70;;;;;;;;;;5158996;27;20068;-79
2022/10/25 13:35:57;;;;;;;16.42;6.40;;;;;;;;;;5144504;27;20018;-80
2022/10/25 13:38:42;;;;;;;29.67;7.57;;;;;;;;;;5159447;27;20030;-79
2022/10/25 13:41:41;;;;;;;20.13;6.95;;;;;;;;;;5158607;27;20105;-78
2022/10/25 13:44:27;;;;;;;19.80;6.95;;;;;;;;;;5159606;27;20007;-78
2022/10/25 13:47:31;;;;;;;18.45;7.45;;;;;;;;;;5159039;27;20022;-77
2022/10/25 13:50:21;;;;;;;17.52;7.68;;;;;;;;;;5169510;27;20018;-79
2022/10/25 13:53:14;;;;;;;20.65;11.80;;;;;;;;;;5161195;27;20018;-78
2022/10/25 13:56:05;;;;;;;22.60;8.02;;;;;;;;;;5159893;27;20030;-78
2022/10/25 13:58:51;;;;;;;30.33;15.73;;;;;;;;;;5159976;27;20079;-78
2022/10/25 14:01:40;;;;;;;19.38;8.68;;;;;;;;;;5167607;27;20026;-78
2022/10/25 14:04:33;;;;;;;24.10;8.52;;;;;;;;;;5164497;27;20025;-77
2022/10/25 14:07:38;;;;;;;17.75;7.78;;;;;;;;;;5170553;27;20054;-78
2022/10/25 14:10:25;;;;;;;18.88;8.63;;;;;;;;;;5158143;27;20106;-79
2022/10/25 14:13:15;;;;;;;26.40;8.93;;;;;;;;;;5158995;27;20030;-79
2022/10/25 14:16:03;;;;;;;18.98;8.43;;;;;;;;;;5158415;27;20026;-78
2022/10/25 14:18:50;;;;;;;23.48;8.35;;;;;;;;;;5143305;27;20019;-78
2022/10/25 14:21:36;;;;;;;20.83;8.25;;;;;;;;;;5144153;27;20442;-79
2022/10/25 14:24:21;;;;;;;18.73;8.40;;;;;;;;;;5157408;27;20053;-79
2022/10/25 14:27:25;;;;;;;34.97;9.32;;;;;;;;;;5158256;27;20038;-78
2022/10/25 14:30:11;;;;;;;24.88;9.52;;;;;;;;;;5158074;27;20014;-78
2022/10/25 14:32:59;;;;;;;21.10;8.95;;;;;;;;;;5161101;27;20057;-78
2022/10/25 14:35:45;;;;;;;25.58;9.98;;;;;;;;;;5157470;27;20041;-78
2022/10/25 14:38:34;;;;;;;23.90;10.65;;;;;;;;;;5158690;27;20050;-77
2022/10/25 14:41:35;;;;;;;26.75;10.32;;;;;;;;;;5157376;27;20023;-77
2022/10/25 14:44:24;;;;;;;22.20;10.18;;;;;;;;;;5157786;27;20015;-79
2022/10/25 14:47:29;;;;;;;21.95;9.07;;;;;;;;;;5143526;27;20033;-79
2022/10/25 14:50:16;;;;;;;20.63;8.93;;;;;;;;;;5168079;27;20018;-79
2022/10/25 14:53:02;;;;;;;18.27;8.95;;;;;;;;;;5169855;27;20019;-78
2022/10/25 14:55:52;;;;;;;17.08;8.52;;;;;;;;;;5158794;27;20023;-77
2022/10/25 14:58:39;;;;;;;21.42;9.40;;;;;;;;;;5157935;27;20014;-76
2022/10/25 15:01:25;;;;;;;24.02;9.82;;;;;;;;;;5157393;27;20011;-78
2022/10/25 15:04:11;;;;;;;21.75;9.10;;;;;;;;;;5157600;27;20018;-78
2022/10/25 15:06:57;;;;;;;26.30;8.63;;;;;;;;;;5141742;27;20025;-77
2022/10/25 15:09:49;;;;;;;27.15;9.93;;;;;;;;;;5144975;27;20317;-79
2022/10/25 15:12:35;;;;;;;21.70;11.00;;;;;;;;;;5145750;27;20044;-76
2022/10/25 15:15:30;;;;;;;19.20;9.82;;;;;;;;;;5157191;27;20023;-78
2022/10/25 15:18:25;;;;;;;16.42;8.48;;;;;;;;;;5142894;27;20023;-79
2022/10/25 15:21:16;;;;;;;21.58;8.68;;;;;;;;;;5143057;27;20019;-78
2022/10/25 15:24:12;;;;;;;19.83;8.98;;;;;;;;;;5143446;27;20333;-78
2022/10/25 15:27:04;;;;;;;16.40;7.82;;;;;;;;;;5157506;27;20095;-79
2022/10/25 15:29:50;;;;;;;17.92;7.22;;;;;;;;;;5142997;27;20345;-79
2022/10/25 15:32:35;;;;;;;18.30;7.68;;;;;;;;;;5157161;27;20324;-77
2022/10/25 15:35:22;;;;;;;17.35;7.18;;;;;;;;;;5156689;27;20495;-79
2022/10/25 15:38:09;;;;;;;20.55;7.25;;;;;;;;;;5155889;27;20103;-78
2022/10/25 15:40:55;;;;;;;17.25;7.25;;;;;;;;;;5141584;27;20349;-78
2022/10/25 15:43:40;;;;;;;20.70;7.40;;;;;;;;;;5156697;27;20467;-78
2022/10/25 15:46:32;;;;;;;16.92;7.95;;;;;;;;;;5156745;27;20114;-78
2022/10/25 15:49:17;;;;;;;15.85;7.38;;;;;;;;;;5156803;27;20038;-77
2022/10/25 15:52:03;;;;;;;18.73;7.38;;;;;;;;;;5140965;27;20035;-78
2022/10/25 15:54:49;;;;;;;22.70;8.38;;;;;;;;;;5156435;27;20014;-78
2022/10/25 15:57:34;;;;;;;20.20;8.43;;;;;;;;;;5156396;27;20440;-78
2022/10/25 16:00:21;;;;;;;24.40;8.40;;;;;;;;;;5157009;27;20037;-77
2022/10/25 16:03:07;;;;;;;15.65;7.82;;;;;;;;;;5157006;27;20073;-78
2022/10/25 16:05:53;;;;;;;24.35;9.40;;;;;;;;;;5140874;27;20052;-79
2022/10/25 16:08:39;;;;;;;33.45;17.50;;;;;;;;;;5156111;27;20071;-78
2022/10/25 16:11:24;;;;;;;29.08;10.63;;;;;;;;;;5156053;27;20097;-79
2022/10/25 16:14:16;;;;;;;25.15;11.90;;;;;;;;;;5155374;27;20027;-78
2022/10/25 16:17:02;;;;;;;22.58;9.50;;;;;;;;;;5140075;27;20030;-79
2022/10/25 16:19:47;;;;;;;23.50;8.73;;;;;;;;;;5141985;27;20051;-78
2022/10/25 16:22:33;;;;;;;20.33;8.25;;;;;;;;;;5155648;27;20014;-79
2022/10/25 16:25:19;;;;;;;16.20;8.00;;;;;;;;;;5156316;27;20030;-79
2022/10/25 16:28:04;;;;;;;18.55;7.90;;;;;;;;;;5155512;27;20026;-78
2022/10/25 16:30:50;;;;;;;25.05;8.00;;;;;;;;;;5155586;27;20106;-79
2022/10/25 16:33:36;;;;;;;19.05;7.30;;;;;;;;;;5156615;27;20126;-78